sensor_id;sensor_type;location;lat;lon;timestamp;temperature;humidity
18408;DHT22;9330;52.210;21.174;2023-04-28T00:01:11;2.90;99.90
18408;DHT22;9330;52.210;21.174;2023-04-28T00:03:38;2.80;99.90
18408;DHT22;9330;52.210;21.174;2023-04-28T00:06:05;2.80;99.90
18408;DHT22;9330;52.210;21.174;2023-04-28T00:08:33;2.80;99.90
18408;DHT22;9330;52.210;21.174;2023-04-28T00:11:01;2.70;99.90
18408;DHT22;9330;52.210;21.174;2023-04-28T00:13:28;2.70;99.90
18408;DHT22;9330;52.210;21.174;2023-04-28T00:15:55;2.70;99.90
18408;DHT22;9330;52.210;21.174;2023-04-28T00:18:21;2.60;99.90
18408;DHT22;9330;52.210;21.174;2023-04-28T00:20:48;2.80;99.90
18408;DHT22;9330;52.210;21.174;2023-04-28T00:23:16;2.50;99.90
18408;DHT22;9330;52.210;21.174;2023-04-28T00:25:44;2.50;99.90
18408;DHT22;9330;52.210;21.174;2023-04-28T00:28:16;2.40;99.90
18408;DHT22;9330;52.210;21.174;2023-04-28T00:30:43;2.50;99.90
18408;DHT22;9330;52.210;21.174;2023-04-28T00:33:10;2.40;99.90
18408;DHT22;9330;52.210;21.174;2023-04-28T00:35:37;2.30;99.90
18408;DHT22;9330;52.210;21.174;2023-04-28T00:38:03;2.40;99.90
18408;DHT22;9330;52.210;21.174;2023-04-28T00:40:34;2.20;99.90
18408;DHT22;9330;52.210;21.174;2023-04-28T00:43:03;2.20;99.90
18408;DHT22;9330;52.210;21.174;2023-04-28T00:45:30;2.20;99.90
18408;DHT22;9330;52.210;21.174;2023-04-28T00:47:58;2.10;99.90
18408;DHT22;9330;52.210;21.174;2023-04-28T00:50:25;2.00;99.90
18408;DHT22;9330;52.210;21.174;2023-04-28T00:52:52;2.00;99.90
18408;DHT22;9330;52.210;21.174;2023-04-28T00:55:21;2.40;99.90
18408;DHT22;9330;52.210;21.174;2023-04-28T00:57:48;2.00;99.90
18408;DHT22;9330;52.210;21.174;2023-04-28T01:00:17;1.90;99.90
18408;DHT22;9330;52.210;21.174;2023-04-28T01:02:43;1.90;99.90
18408;DHT22;9330;52.210;21.174;2023-04-28T01:05:10;2.00;99.90
18408;DHT22;9330;52.210;21.174;2023-04-28T01:07:38;1.60;99.90
18408;DHT22;9330;52.210;21.174;2023-04-28T01:10:07;1.70;99.90
18408;DHT22;9330;52.210;21.174;2023-04-28T01:12:34;1.60;99.90
18408;DHT22;9330;52.210;21.174;2023-04-28T01:15:01;1.60;99.90
18408;DHT22;9330;52.210;21.174;2023-04-28T01:17:29;1.50;99.90
18408;DHT22;9330;52.210;21.174;2023-04-28T01:19:56;1.60;99.90
18408;DHT22;9330;52.210;21.174;2023-04-28T01:22:23;1.60;99.90
18408;DHT22;9330;52.210;21.174;2023-04-28T01:24:52;1.40;99.90
18408;DHT22;9330;52.210;21.174;2023-04-28T01:27:19;1.30;99.90
18408;DHT22;9330;52.210;21.174;2023-04-28T01:29:47;1.30;99.90
18408;DHT22;9330;52.210;21.174;2023-04-28T01:32:14;1.40;99.90
18408;DHT22;9330;52.210;21.174;2023-04-28T01:34:41;1.30;99.90
18408;DHT22;9330;52.210;21.174;2023-04-28T01:37:08;1.20;99.90
18408;DHT22;9330;52.210;21.174;2023-04-28T01:39:35;1.20;99.90
18408;DHT22;9330;52.210;21.174;2023-04-28T01:42:03;1.10;99.90
18408;DHT22;9330;52.210;21.174;2023-04-28T01:44:30;1.20;99.90
18408;DHT22;9330;52.210;21.174;2023-04-28T01:46:57;1.40;99.90
18408;DHT22;9330;52.210;21.174;2023-04-28T01:49:25;1.50;99.90
18408;DHT22;9330;52.210;21.174;2023-04-28T01:51:52;1.00;99.90
18408;DHT22;9330;52.210;21.174;2023-04-28T01:54:18;0.90;99.90
18408;DHT22;9330;52.210;21.174;2023-04-28T01:56:45;0.90;99.90
18408;DHT22;9330;52.210;21.174;2023-04-28T01:59:14;1.10;99.90
18408;DHT22;9330;52.210;21.174;2023-04-28T02:01:41;1.00;99.90
18408;DHT22;9330;52.210;21.174;2023-04-28T02:04:08;0.80;99.90
18408;DHT22;9330;52.210;21.174;2023-04-28T02:06:35;0.80;99.90
18408;DHT22;9330;52.210;21.174;2023-04-28T02:09:02;0.70;99.90
18408;DHT22;9330;52.210;21.174;2023-04-28T02:11:29;0.80;99.90
18408;DHT22;9330;52.210;21.174;2023-04-28T02:13:56;0.70;99.90
18408;DHT22;9330;52.210;21.174;2023-04-28T02:16:24;0.90;99.90
18408;DHT22;9330;52.210;21.174;2023-04-28T02:18:51;0.70;99.90
18408;DHT22;9330;52.210;21.174;2023-04-28T02:21:18;0.60;99.90
18408;DHT22;9330;52.210;21.174;2023-04-28T02:23:45;0.60;99.90
18408;DHT22;9330;52.210;21.174;2023-04-28T02:26:13;0.50;99.90
18408;DHT22;9330;52.210;21.174;2023-04-28T02:28:40;0.60;99.90
18408;DHT22;9330;52.210;21.174;2023-04-28T02:31:08;0.60;99.90
18408;DHT22;9330;52.210;21.174;2023-04-28T02:33:37;0.60;99.90
18408;DHT22;9330;52.210;21.174;2023-04-28T02:36:05;0.50;99.90
18408;DHT22;9330;52.210;21.174;2023-04-28T02:38:32;0.50;99.90
18408;DHT22;9330;52.210;21.174;2023-04-28T02:40:59;0.40;99.90
18408;DHT22;9330;52.210;21.174;2023-04-28T02:43:26;0.90;99.90
18408;DHT22;9330;52.210;21.174;2023-04-28T02:45:54;0.40;99.90
18408;DHT22;9330;52.210;21.174;2023-04-28T02:48:21;0.40;99.90
18408;DHT22;9330;52.210;21.174;2023-04-28T02:50:49;0.30;99.90
18408;DHT22;9330;52.210;21.174;2023-04-28T02:53:17;0.40;99.90
18408;DHT22;9330;52.210;21.174;2023-04-28T02:55:44;0.30;99.90
18408;DHT22;9330;52.210;21.174;2023-04-28T02:58:11;0.30;99.90
18408;DHT22;9330;52.210;21.174;2023-04-28T03:00:39;0.50;99.90
18408;DHT22;9330;52.210;21.174;2023-04-28T03:03:06;0.40;99.90
18408;DHT22;9330;52.210;21.174;2023-04-28T03:05:33;0.20;99.90
18408;DHT22;9330;52.210;21.174;2023-04-28T03:08:01;0.30;99.90
18408;DHT22;9330;52.210;21.174;2023-04-28T03:10:28;0.30;99.90
18408;DHT22;9330;52.210;21.174;2023-04-28T03:12:55;0.20;99.90
18408;DHT22;9330;52.210;21.174;2023-04-28T03:15:22;0.20;99.90
18408;DHT22;9330;52.210;21.174;2023-04-28T03:17:50;0.40;99.90
18408;DHT22;9330;52.210;21.174;2023-04-28T03:20:17;0.20;99.90
18408;DHT22;9330;52.210;21.174;2023-04-28T03:22:44;0.20;99.90
18408;DHT22;9330;52.210;21.174;2023-04-28T03:25:12;0.10;99.90
18408;DHT22;9330;52.210;21.174;2023-04-28T03:27:39;0.20;99.90
18408;DHT22;9330;52.210;21.174;2023-04-28T03:30:06;0.10;99.90
18408;DHT22;9330;52.210;21.174;2023-04-28T03:32:34;0.20;99.90
18408;DHT22;9330;52.210;21.174;2023-04-28T03:35:02;0.20;99.90
18408;DHT22;9330;52.210;21.174;2023-04-28T03:37:29;0.10;99.90
18408;DHT22;9330;52.210;21.174;2023-04-28T03:39:56;0.40;99.90
18408;DHT22;9330;52.210;21.174;2023-04-28T03:42:24;0.20;99.90
18408;DHT22;9330;52.210;21.174;2023-04-28T03:44:51;0.20;99.90
18408;DHT22;9330;52.210;21.174;2023-04-28T03:47:18;0.20;99.90
18408;DHT22;9330;52.210;21.174;2023-04-28T03:49:45;0.20;99.90
18408;DHT22;9330;52.210;21.174;2023-04-28T03:52:12;0.20;99.90
18408;DHT22;9330;52.210;21.174;2023-04-28T03:54:40;0.30;99.90
18408;DHT22;9330;52.210;21.174;2023-04-28T03:57:07;0.30;99.90
18408;DHT22;9330;52.210;21.174;2023-04-28T03:59:35;0.30;99.90
18408;DHT22;9330;52.210;21.174;2023-04-28T04:02:02;1.00;99.90
18408;DHT22;9330;52.210;21.174;2023-04-28T04:04:29;0.40;99.90
18408;DHT22;9330;52.210;21.174;2023-04-28T04:06:56;0.30;99.90
18408;DHT22;9330;52.210;21.174;2023-04-28T04:09:23;0.40;99.90
18408;DHT22;9330;52.210;21.174;2023-04-28T04:11:50;0.40;99.90
18408;DHT22;9330;52.210;21.174;2023-04-28T04:14:17;0.50;99.90
18408;DHT22;9330;52.210;21.174;2023-04-28T04:16:47;0.70;99.90
18408;DHT22;9330;52.210;21.174;2023-04-28T04:19:14;0.60;99.90
18408;DHT22;9330;52.210;21.174;2023-04-28T04:21:41;0.70;99.90
18408;DHT22;9330;52.210;21.174;2023-04-28T04:24:08;0.90;99.90
18408;DHT22;9330;52.210;21.174;2023-04-28T04:26:35;0.90;99.90
18408;DHT22;9330;52.210;21.174;2023-04-28T04:29:02;1.20;99.90
18408;DHT22;9330;52.210;21.174;2023-04-28T04:31:29;1.10;99.90
18408;DHT22;9330;52.210;21.174;2023-04-28T04:33:57;1.10;99.90
18408;DHT22;9330;52.210;21.174;2023-04-28T04:36:24;1.20;99.90
18408;DHT22;9330;52.210;21.174;2023-04-28T04:38:51;1.40;99.90
18408;DHT22;9330;52.210;21.174;2023-04-28T04:41:18;1.80;99.90
18408;DHT22;9330;52.210;21.174;2023-04-28T04:43:46;1.70;99.90
18408;DHT22;9330;52.210;21.174;2023-04-28T04:46:13;1.80;99.90
18408;DHT22;9330;52.210;21.174;2023-04-28T04:48:40;1.90;99.90
18408;DHT22;9330;52.210;21.174;2023-04-28T04:51:09;2.00;99.90
18408;DHT22;9330;52.210;21.174;2023-04-28T04:53:36;2.20;99.90
18408;DHT22;9330;52.210;21.174;2023-04-28T04:56:03;2.20;99.90
18408;DHT22;9330;52.210;21.174;2023-04-28T04:58:30;2.40;99.90
18408;DHT22;9330;52.210;21.174;2023-04-28T05:00:57;2.60;99.90
18408;DHT22;9330;52.210;21.174;2023-04-28T05:03:24;2.60;99.90
18408;DHT22;9330;52.210;21.174;2023-04-28T05:05:51;2.80;99.90
18408;DHT22;9330;52.210;21.174;2023-04-28T05:08:19;2.80;99.90
18408;DHT22;9330;52.210;21.174;2023-04-28T05:10:46;3.00;99.90
18408;DHT22;9330;52.210;21.174;2023-04-28T05:13:13;3.40;99.90
18408;DHT22;9330;52.210;21.174;2023-04-28T05:15:40;3.60;99.90
18408;DHT22;9330;52.210;21.174;2023-04-28T05:18:07;3.60;99.90
18408;DHT22;9330;52.210;21.174;2023-04-28T05:20:36;3.60;99.90
18408;DHT22;9330;52.210;21.174;2023-04-28T05:23:03;3.70;99.90
18408;DHT22;9330;52.210;21.174;2023-04-28T05:25:31;3.80;99.90
18408;DHT22;9330;52.210;21.174;2023-04-28T05:27:58;3.90;99.90
18408;DHT22;9330;52.210;21.174;2023-04-28T05:30:29;4.00;99.90
18408;DHT22;9330;52.210;21.174;2023-04-28T05:32:56;4.20;99.90
18408;DHT22;9330;52.210;21.174;2023-04-28T05:35:23;4.40;99.90
18408;DHT22;9330;52.210;21.174;2023-04-28T05:37:50;4.50;99.90
18408;DHT22;9330;52.210;21.174;2023-04-28T05:40:17;4.70;99.90
18408;DHT22;9330;52.210;21.174;2023-04-28T05:42:45;4.80;99.90
18408;DHT22;9330;52.210;21.174;2023-04-28T05:45:12;5.10;99.90
18408;DHT22;9330;52.210;21.174;2023-04-28T05:47:39;5.30;99.90
18408;DHT22;9330;52.210;21.174;2023-04-28T05:50:07;5.50;99.90
18408;DHT22;9330;52.210;21.174;2023-04-28T05:52:34;5.50;99.90
18408;DHT22;9330;52.210;21.174;2023-04-28T05:55:01;5.70;99.90
18408;DHT22;9330;52.210;21.174;2023-04-28T05:57:28;5.70;99.90
18408;DHT22;9330;52.210;21.174;2023-04-28T05:59:56;5.90;99.90
18408;DHT22;9330;52.210;21.174;2023-04-28T06:02:23;6.10;99.90
18408;DHT22;9330;52.210;21.174;2023-04-28T06:04:50;6.20;99.90
18408;DHT22;9330;52.210;21.174;2023-04-28T06:07:17;6.40;99.90
18408;DHT22;9330;52.210;21.174;2023-04-28T06:09:44;6.80;99.90
18408;DHT22;9330;52.210;21.174;2023-04-28T06:12:11;6.60;99.90
18408;DHT22;9330;52.210;21.174;2023-04-28T06:14:38;6.70;99.90
18408;DHT22;9330;52.210;21.174;2023-04-28T06:17:07;6.90;99.90
18408;DHT22;9330;52.210;21.174;2023-04-28T06:19:35;7.10;99.90
18408;DHT22;9330;52.210;21.174;2023-04-28T06:22:02;7.40;99.90
18408;DHT22;9330;52.210;21.174;2023-04-28T06:24:29;7.70;99.90
18408;DHT22;9330;52.210;21.174;2023-04-28T06:26:56;7.50;99.90
18408;DHT22;9330;52.210;21.174;2023-04-28T06:29:23;7.70;99.90
18408;DHT22;9330;52.210;21.174;2023-04-28T06:31:50;7.80;99.90
18408;DHT22;9330;52.210;21.174;2023-04-28T06:34:18;8.10;99.90
18408;DHT22;9330;52.210;21.174;2023-04-28T06:36:45;7.90;99.90
18408;DHT22;9330;52.210;21.174;2023-04-28T06:39:12;8.30;99.90
18408;DHT22;9330;52.210;21.174;2023-04-28T06:41:39;8.50;99.90
18408;DHT22;9330;52.210;21.174;2023-04-28T06:44:06;8.90;99.90
18408;DHT22;9330;52.210;21.174;2023-04-28T06:46:33;8.60;99.90
18408;DHT22;9330;52.210;21.174;2023-04-28T06:49:00;8.80;99.90
18408;DHT22;9330;52.210;21.174;2023-04-28T06:51:28;9.10;99.90
18408;DHT22;9330;52.210;21.174;2023-04-28T06:53:57;9.30;99.90
18408;DHT22;9330;52.210;21.174;2023-04-28T06:56:24;9.30;99.90
18408;DHT22;9330;52.210;21.174;2023-04-28T06:58:51;9.80;99.90
18408;DHT22;9330;52.210;21.174;2023-04-28T07:01:18;9.80;99.90
18408;DHT22;9330;52.210;21.174;2023-04-28T07:03:45;10.10;99.90
18408;DHT22;9330;52.210;21.174;2023-04-28T07:06:11;10.10;99.90
18408;DHT22;9330;52.210;21.174;2023-04-28T07:08:40;10.40;99.90
18408;DHT22;9330;52.210;21.174;2023-04-28T07:11:07;10.60;99.90
18408;DHT22;9330;52.210;21.174;2023-04-28T07:13:34;10.80;99.90
18408;DHT22;9330;52.210;21.174;2023-04-28T07:16:01;10.90;96.40
18408;DHT22;9330;52.210;21.174;2023-04-28T07:18:29;10.70;99.20
18408;DHT22;9330;52.210;21.174;2023-04-28T07:20:56;11.10;97.00
18408;DHT22;9330;52.210;21.174;2023-04-28T07:23:23;11.20;88.30
18408;DHT22;9330;52.210;21.174;2023-04-28T07:25:51;11.50;98.30
18408;DHT22;9330;52.210;21.174;2023-04-28T07:28:18;11.60;92.90
18408;DHT22;9330;52.210;21.174;2023-04-28T07:30:45;11.30;79.10
18408;DHT22;9330;52.210;21.174;2023-04-28T07:33:12;11.40;89.70
18408;DHT22;9330;52.210;21.174;2023-04-28T07:35:39;11.70;90.20
18408;DHT22;9330;52.210;21.174;2023-04-28T07:38:05;11.60;75.20
18408;DHT22;9330;52.210;21.174;2023-04-28T07:40:32;11.60;79.10
18408;DHT22;9330;52.210;21.174;2023-04-28T07:43:01;11.60;68.80
18408;DHT22;9330;52.210;21.174;2023-04-28T07:45:28;11.80;82.00
18408;DHT22;9330;52.210;21.174;2023-04-28T07:47:55;12.00;89.50
18408;DHT22;9330;52.210;21.174;2023-04-28T07:50:22;12.20;86.40
18408;DHT22;9330;52.210;21.174;2023-04-28T07:52:49;12.10;56.40
18408;DHT22;9330;52.210;21.174;2023-04-28T07:55:16;12.00;50.50
18408;DHT22;9330;52.210;21.174;2023-04-28T07:57:43;12.10;57.20
18408;DHT22;9330;52.210;21.174;2023-04-28T08:00:12;12.30;62.80
18408;DHT22;9330;52.210;21.174;2023-04-28T08:02:39;12.70;57.90
18408;DHT22;9330;52.210;21.174;2023-04-28T08:05:06;12.90;49.60
18408;DHT22;9330;52.210;21.174;2023-04-28T08:07:33;12.90;46.90
18408;DHT22;9330;52.210;21.174;2023-04-28T08:10:01;12.80;42.60
18408;DHT22;9330;52.210;21.174;2023-04-28T08:12:28;13.00;42.70
18408;DHT22;9330;52.210;21.174;2023-04-28T08:14:55;13.20;42.70
18408;DHT22;9330;52.210;21.174;2023-04-28T08:17:24;13.10;38.80
18408;DHT22;9330;52.210;21.174;2023-04-28T08:19:51;13.00;40.20
18408;DHT22;9330;52.210;21.174;2023-04-28T08:22:18;13.00;45.50
18408;DHT22;9330;52.210;21.174;2023-04-28T08:24:45;12.90;42.90
18408;DHT22;9330;52.210;21.174;2023-04-28T08:27:12;12.90;45.60
18408;DHT22;9330;52.210;21.174;2023-04-28T08:29:38;12.80;41.70
18408;DHT22;9330;52.210;21.174;2023-04-28T08:32:05;12.40;40.30
18408;DHT22;9330;52.210;21.174;2023-04-28T08:34:34;12.40;35.90
18408;DHT22;9330;52.210;21.174;2023-04-28T08:37:01;12.50;35.40
18408;DHT22;9330;52.210;21.174;2023-04-28T08:39:28;12.40;32.90
18408;DHT22;9330;52.210;21.174;2023-04-28T08:41:56;12.70;41.40
18408;DHT22;9330;52.210;21.174;2023-04-28T08:44:23;12.90;36.70
18408;DHT22;9330;52.210;21.174;2023-04-28T08:46:54;13.10;40.40
18408;DHT22;9330;52.210;21.174;2023-04-28T08:49:29;13.20;43.10
18408;DHT22;9330;52.210;21.174;2023-04-28T08:52:02;13.10;34.10
18408;DHT22;9330;52.210;21.174;2023-04-28T08:54:34;13.10;32.30
18408;DHT22;9330;52.210;21.174;2023-04-28T08:57:01;12.80;31.10
18408;DHT22;9330;52.210;21.174;2023-04-28T08:59:29;12.90;35.80
18408;DHT22;9330;52.210;21.174;2023-04-28T09:01:56;13.40;36.80
18408;DHT22;9330;52.210;21.174;2023-04-28T09:04:25;13.60;37.80
18408;DHT22;9330;52.210;21.174;2023-04-28T09:06:51;13.80;39.00
18408;DHT22;9330;52.210;21.174;2023-04-28T09:09:24;13.70;32.70
18408;DHT22;9330;52.210;21.174;2023-04-28T09:11:52;14.10;38.90
18408;DHT22;9330;52.210;21.174;2023-04-28T09:14:20;14.10;35.40
18408;DHT22;9330;52.210;21.174;2023-04-28T09:16:47;13.80;31.60
18408;DHT22;9330;52.210;21.174;2023-04-28T09:19:14;13.50;33.70
18408;DHT22;9330;52.210;21.174;2023-04-28T09:21:49;13.40;37.40
18408;DHT22;9330;52.210;21.174;2023-04-28T09:24:29;13.10;32.30
18408;DHT22;9330;52.210;21.174;2023-04-28T09:26:56;13.00;33.90
18408;DHT22;9330;52.210;21.174;2023-04-28T09:29:23;12.90;36.70
18408;DHT22;9330;52.210;21.174;2023-04-28T09:31:50;12.80;35.10
18408;DHT22;9330;52.210;21.174;2023-04-28T09:34:17;12.60;35.00
18408;DHT22;9330;52.210;21.174;2023-04-28T09:36:44;12.50;37.60
18408;DHT22;9330;52.210;21.174;2023-04-28T09:39:11;12.40;37.60
18408;DHT22;9330;52.210;21.174;2023-04-28T09:41:40;12.40;39.40
18408;DHT22;9330;52.210;21.174;2023-04-28T09:44:12;12.30;36.40
18408;DHT22;9330;52.210;21.174;2023-04-28T09:46:40;12.30;39.60
18408;DHT22;9330;52.210;21.174;2023-04-28T09:49:07;12.30;38.10
18408;DHT22;9330;52.210;21.174;2023-04-28T09:51:34;12.70;37.10
18408;DHT22;9330;52.210;21.174;2023-04-28T09:54:01;13.10;39.80
18408;DHT22;9330;52.210;21.174;2023-04-28T09:56:29;13.10;37.80
18408;DHT22;9330;52.210;21.174;2023-04-28T09:59:00;13.00;35.10
18408;DHT22;9330;52.210;21.174;2023-04-28T10:01:31;13.20;41.40
18408;DHT22;9330;52.210;21.174;2023-04-28T10:03:59;13.20;34.90
18408;DHT22;9330;52.210;21.174;2023-04-28T10:06:27;13.20;34.90
18408;DHT22;9330;52.210;21.174;2023-04-28T10:08:57;13.30;35.70
18408;DHT22;9330;52.210;21.174;2023-04-28T10:11:25;13.40;37.00
18408;DHT22;9330;52.210;21.174;2023-04-28T10:13:53;13.30;35.00
18408;DHT22;9330;52.210;21.174;2023-04-28T10:16:22;13.30;33.90
18408;DHT22;9330;52.210;21.174;2023-04-28T10:18:49;13.20;33.40
18408;DHT22;9330;52.210;21.174;2023-04-28T10:21:18;13.20;34.30
18408;DHT22;9330;52.210;21.174;2023-04-28T10:24:09;13.20;34.00
18408;DHT22;9330;52.210;21.174;2023-04-28T10:27:06;13.20;35.80
18408;DHT22;9330;52.210;21.174;2023-04-28T10:29:34;13.30;35.80
18408;DHT22;9330;52.210;21.174;2023-04-28T10:32:20;13.50;34.50
18408;DHT22;9330;52.210;21.174;2023-04-28T10:34:48;13.30;34.40
18408;DHT22;9330;52.210;21.174;2023-04-28T10:37:16;13.20;33.00
18408;DHT22;9330;52.210;21.174;2023-04-28T10:42:53;13.30;35.10
18408;DHT22;9330;52.210;21.174;2023-04-28T10:45:58;13.40;34.90
18408;DHT22;9330;52.210;21.174;2023-04-28T10:48:56;13.40;32.70
18408;DHT22;9330;52.210;21.174;2023-04-28T10:51:30;13.50;34.00
18408;DHT22;9330;52.210;21.174;2023-04-28T10:54:16;13.60;34.30
18408;DHT22;9330;52.210;21.174;2023-04-28T10:57:20;13.70;36.40
18408;DHT22;9330;52.210;21.174;2023-04-28T10:59:48;13.70;36.20
18408;DHT22;9330;52.210;21.174;2023-04-28T11:02:39;13.80;34.80
18408;DHT22;9330;52.210;21.174;2023-04-28T11:05:13;13.80;35.90
18408;DHT22;9330;52.210;21.174;2023-04-28T11:07:42;14.00;33.60
18408;DHT22;9330;52.210;21.174;2023-04-28T11:13:40;14.20;35.30
18408;DHT22;9330;52.210;21.174;2023-04-28T11:16:07;14.20;34.90
18408;DHT22;9330;52.210;21.174;2023-04-28T11:18:48;14.20;32.50
18408;DHT22;9330;52.210;21.174;2023-04-28T11:21:16;14.40;34.60
18408;DHT22;9330;52.210;21.174;2023-04-28T11:23:44;14.50;35.00
18408;DHT22;9330;52.210;21.174;2023-04-28T11:26:11;14.60;35.00
18408;DHT22;9330;52.210;21.174;2023-04-28T11:28:47;14.40;31.70
18408;DHT22;9330;52.210;21.174;2023-04-28T11:31:16;14.50;36.20
18408;DHT22;9330;52.210;21.174;2023-04-28T11:33:55;14.70;32.00
18408;DHT22;9330;52.210;21.174;2023-04-28T11:36:27;15.00;33.70
18408;DHT22;9330;52.210;21.174;2023-04-28T11:38:55;15.10;33.00
18408;DHT22;9330;52.210;21.174;2023-04-28T11:41:22;15.40;32.10
18408;DHT22;9330;52.210;21.174;2023-04-28T11:43:51;15.60;33.80
18408;DHT22;9330;52.210;21.174;2023-04-28T11:46:19;15.50;29.10
18408;DHT22;9330;52.210;21.174;2023-04-28T11:48:47;15.30;30.00
18408;DHT22;9330;52.210;21.174;2023-04-28T11:51:39;15.50;30.30
18408;DHT22;9330;52.210;21.174;2023-04-28T11:54:07;15.70;31.00
18408;DHT22;9330;52.210;21.174;2023-04-28T11:56:37;16.20;35.70
18408;DHT22;9330;52.210;21.174;2023-04-28T11:59:07;16.70;33.00
18408;DHT22;9330;52.210;21.174;2023-04-28T12:01:43;16.80;27.80
18408;DHT22;9330;52.210;21.174;2023-04-28T12:04:11;16.90;29.60
18408;DHT22;9330;52.210;21.174;2023-04-28T12:06:39;17.20;27.70
18408;DHT22;9330;52.210;21.174;2023-04-28T12:09:16;17.10;29.00
18408;DHT22;9330;52.210;21.174;2023-04-28T12:11:53;17.20;27.00
18408;DHT22;9330;52.210;21.174;2023-04-28T12:14:23;17.20;27.40
18408;DHT22;9330;52.210;21.174;2023-04-28T12:16:50;17.20;28.30
18408;DHT22;9330;52.210;21.174;2023-04-28T12:19:18;17.50;28.30
18408;DHT22;9330;52.210;21.174;2023-04-28T12:22:02;17.60;28.00
18408;DHT22;9330;52.210;21.174;2023-04-28T12:24:30;17.40;26.90
18408;DHT22;9330;52.210;21.174;2023-04-28T12:27:14;17.60;28.10
18408;DHT22;9330;52.210;21.174;2023-04-28T12:29:43;18.00;29.40
18408;DHT22;9330;52.210;21.174;2023-04-28T12:32:12;18.20;26.80
18408;DHT22;9330;52.210;21.174;2023-04-28T12:34:40;18.10;28.80
18408;DHT22;9330;52.210;21.174;2023-04-28T12:37:07;17.50;27.20
18408;DHT22;9330;52.210;21.174;2023-04-28T12:39:35;17.00;28.10
18408;DHT22;9330;52.210;21.174;2023-04-28T12:42:03;16.40;27.30
18408;DHT22;9330;52.210;21.174;2023-04-28T12:44:34;16.10;28.40
18408;DHT22;9330;52.210;21.174;2023-04-28T12:47:04;15.80;27.50
18408;DHT22;9330;52.210;21.174;2023-04-28T12:49:32;15.80;26.70
18408;DHT22;9330;52.210;21.174;2023-04-28T12:51:59;15.40;26.20
18408;DHT22;9330;52.210;21.174;2023-04-28T12:54:26;15.70;29.50
18408;DHT22;9330;52.210;21.174;2023-04-28T12:56:53;16.10;31.10
18408;DHT22;9330;52.210;21.174;2023-04-28T12:59:20;16.50;28.00
18408;DHT22;9330;52.210;21.174;2023-04-28T13:01:47;16.60;27.20
18408;DHT22;9330;52.210;21.174;2023-04-28T13:04:16;16.80;28.60
18408;DHT22;9330;52.210;21.174;2023-04-28T13:06:43;17.00;27.20
18408;DHT22;9330;52.210;21.174;2023-04-28T13:09:11;17.10;29.20
18408;DHT22;9330;52.210;21.174;2023-04-28T13:11:38;16.90;26.80
18408;DHT22;9330;52.210;21.174;2023-04-28T13:14:05;16.60;26.30
18408;DHT22;9330;52.210;21.174;2023-04-28T13:16:32;16.50;26.50
18408;DHT22;9330;52.210;21.174;2023-04-28T13:18:59;16.40;29.00
18408;DHT22;9330;52.210;21.174;2023-04-28T13:21:27;16.10;26.40
18408;DHT22;9330;52.210;21.174;2023-04-28T13:23:54;16.10;27.10
18408;DHT22;9330;52.210;21.174;2023-04-28T13:26:22;15.90;28.20
18408;DHT22;9330;52.210;21.174;2023-04-28T13:28:49;15.60;26.70
18408;DHT22;9330;52.210;21.174;2023-04-28T13:31:16;15.20;27.80
18408;DHT22;9330;52.210;21.174;2023-04-28T13:33:43;15.20;29.70
18408;DHT22;9330;52.210;21.174;2023-04-28T13:36:10;15.20;28.40
18408;DHT22;9330;52.210;21.174;2023-04-28T13:38:39;15.30;28.70
18408;DHT22;9330;52.210;21.174;2023-04-28T13:41:06;15.40;27.80
18408;DHT22;9330;52.210;21.174;2023-04-28T13:43:33;15.50;28.20
18408;DHT22;9330;52.210;21.174;2023-04-28T13:46:00;15.80;28.10
18408;DHT22;9330;52.210;21.174;2023-04-28T13:48:32;16.00;28.10
18408;DHT22;9330;52.210;21.174;2023-04-28T13:51:00;16.10;26.40
18408;DHT22;9330;52.210;21.174;2023-04-28T13:53:27;15.50;25.70
18408;DHT22;9330;52.210;21.174;2023-04-28T13:55:55;15.30;28.70
18408;DHT22;9330;52.210;21.174;2023-04-28T13:58:23;15.30;27.70
18408;DHT22;9330;52.210;21.174;2023-04-28T14:00:50;15.30;28.00
18408;DHT22;9330;52.210;21.174;2023-04-28T14:03:17;15.20;27.50
18408;DHT22;9330;52.210;21.174;2023-04-28T14:05:46;15.00;27.50
18408;DHT22;9330;52.210;21.174;2023-04-28T14:08:13;14.80;27.70
18408;DHT22;9330;52.210;21.174;2023-04-28T14:10:40;14.50;27.40
18408;DHT22;9330;52.210;21.174;2023-04-28T14:13:09;14.40;28.80
18408;DHT22;9330;52.210;21.174;2023-04-28T14:15:36;14.50;28.70
18408;DHT22;9330;52.210;21.174;2023-04-28T14:18:04;14.60;29.80
18408;DHT22;9330;52.210;21.174;2023-04-28T14:20:31;14.80;30.00
18408;DHT22;9330;52.210;21.174;2023-04-28T14:22:58;14.90;30.50
18408;DHT22;9330;52.210;21.174;2023-04-28T14:25:25;14.70;29.00
18408;DHT22;9330;52.210;21.174;2023-04-28T14:27:52;14.90;28.30
18408;DHT22;9330;52.210;21.174;2023-04-28T14:30:21;15.20;28.50
18408;DHT22;9330;52.210;21.174;2023-04-28T14:32:48;15.40;29.00
18408;DHT22;9330;52.210;21.174;2023-04-28T14:35:17;15.50;28.10
18408;DHT22;9330;52.210;21.174;2023-04-28T14:37:45;15.30;28.40
18408;DHT22;9330;52.210;21.174;2023-04-28T14:40:13;15.20;29.50
18408;DHT22;9330;52.210;21.174;2023-04-28T14:42:41;15.10;29.60
18408;DHT22;9330;52.210;21.174;2023-04-28T14:45:10;15.00;28.40
18408;DHT22;9330;52.210;21.174;2023-04-28T14:47:38;14.80;28.60
18408;DHT22;9330;52.210;21.174;2023-04-28T14:50:07;14.70;29.00
18408;DHT22;9330;52.210;21.174;2023-04-28T14:52:34;14.60;30.70
18408;DHT22;9330;52.210;21.174;2023-04-28T14:55:01;14.50;32.00
18408;DHT22;9330;52.210;21.174;2023-04-28T14:57:29;14.40;30.10
18408;DHT22;9330;52.210;21.174;2023-04-28T14:59:58;14.30;31.10
18408;DHT22;9330;52.210;21.174;2023-04-28T15:02:26;14.30;29.80
18408;DHT22;9330;52.210;21.174;2023-04-28T15:04:55;13.90;29.80
18408;DHT22;9330;52.210;21.174;2023-04-28T15:07:23;14.00;29.90
18408;DHT22;9330;52.210;21.174;2023-04-28T15:09:53;13.90;31.80
18408;DHT22;9330;52.210;21.174;2023-04-28T15:12:20;13.90;32.00
18408;DHT22;9330;52.210;21.174;2023-04-28T15:14:47;13.80;31.90
18408;DHT22;9330;52.210;21.174;2023-04-28T15:17:14;13.80;31.40
18408;DHT22;9330;52.210;21.174;2023-04-28T15:19:41;13.80;31.80
18408;DHT22;9330;52.210;21.174;2023-04-28T15:22:10;13.70;31.80
18408;DHT22;9330;52.210;21.174;2023-04-28T15:24:37;13.60;33.60
18408;DHT22;9330;52.210;21.174;2023-04-28T15:27:04;13.60;31.90
18408;DHT22;9330;52.210;21.174;2023-04-28T15:29:31;13.60;30.60
18408;DHT22;9330;52.210;21.174;2023-04-28T15:31:58;13.50;32.20
18408;DHT22;9330;52.210;21.174;2023-04-28T15:34:25;13.50;31.00
18408;DHT22;9330;52.210;21.174;2023-04-28T15:36:52;13.50;32.00
18408;DHT22;9330;52.210;21.174;2023-04-28T15:39:20;13.40;32.00
18408;DHT22;9330;52.210;21.174;2023-04-28T15:41:49;13.40;31.20
18408;DHT22;9330;52.210;21.174;2023-04-28T15:44:16;13.40;33.10
18408;DHT22;9330;52.210;21.174;2023-04-28T15:46:42;13.40;31.90
18408;DHT22;9330;52.210;21.174;2023-04-28T15:49:10;13.30;32.10
18408;DHT22;9330;52.210;21.174;2023-04-28T15:51:37;13.30;32.90